Flight Track Log - Related Links

Times and Time Zones

All times are in EDT time to prevent confusion due to time zone crossing. See the AAL1251 flight status page for this flight to view local times or setup timezone preferences in your user account.

Time Position Orientation Groundspeed Altitude Reporting Facility
EDT Latitude Longitude Course Direction KTS MPH feet Rate Location/Type
Fri 10:54:55 PM 32.8833 -97.0333 164° South 156 180 1,500  Level Dallas / Fort Worth TRACON
Fri 10:56:01 PM 32.8333 -97.0167 164° South 194 223 3,800 2,107 Climbing Dallas / Fort Worth TRACON
Fri 10:57:06 PM 32.7742 -96.9836 155° Southeast 234 269 6,100 2,000 Climbing Fort Worth Center
Fri 10:58:07 PM 32.7631 -96.8939 98° East 277 319 8,000 2,066 Climbing Fort Worth Center
Fri 10:59:08 PM 32.8128 -96.8192 52° Northeast 286 329 10,300 1,820 Climbing Fort Worth Center
Fri 11:00:09 PM 32.9047 -96.8081 North 331 381 11,700 2,098 Climbing Fort Worth Center
Fri 11:01:11 PM 33.0064 -96.8203 354° North 364 419 14,600 2,634 Climbing Fort Worth Center
Fri 11:02:12 PM 33.0983 -96.8817 331° Northwest 371 427 17,100 2,607 Climbing Fort Worth Center
Fri 11:03:13 PM 33.1981 -96.9442 332° Northwest 375 432 19,900 2,066 Climbing Fort Worth Center
Fri 11:04:14 PM 33.3058 -96.9036 17° North 437 503 21,300 1,574 Climbing Fort Worth Center
Fri 11:05:15 PM 33.4206 -96.8558 19° North 439 505 23,100 1,770 Climbing Fort Worth Center
Fri 11:06:16 PM 33.5467 -96.8211 13° North 444 511 24,900 1,561 Climbing Fort Worth Center
Fri 11:07:18 PM 33.6694 -96.7850 14° North 450 518 26,300 1,561 Climbing Fort Worth Center
Fri 11:08:19 PM 33.7942 -96.7486 14° North 457 526 28,100 1,672 Climbing Fort Worth Center
Fri 11:09:20 PM 33.9175 -96.7150 13° North 458 527 29,700 1,426 Climbing Fort Worth Center
Fri 11:10:21 PM 34.0400 -96.6800 13° North 454 522 31,000 1,279 Climbing Fort Worth Center
Fri 11:11:22 PM 34.1739 -96.6406 14° North 460 529 32,300 934 Climbing Fort Worth Center
Fri 11:12:23 PM 34.2931 -96.6072 13° North 445 512 32,900 344 Climbing Fort Worth Center
Fri 11:13:24 PM 34.4111 -96.5703 14° North 440 506 33,000 49 Climbing Fort Worth Center
Fri 11:14:26 PM 34.5283 -96.5364 13° North 438 504 33,000  Level Fort Worth Center
Fri 11:15:27 PM 34.6478 -96.5033 13° North 439 505 33,000  Level Fort Worth Center
Fri 11:16:28 PM 34.7672 -96.4683 14° North 443 510 33,000  Level Fort Worth Center
Fri 11:17:29 PM 34.8872 -96.4342 13° North 444 511 33,000  Level Fort Worth Center
Fri 11:18:30 PM 35.0081 -96.3992 13° North 445 512 33,000  Level Fort Worth Center
Fri 11:19:31 PM 35.1544 -96.3567 13° North 447 514 33,000  Level Fort Worth Center
Fri 11:20:32 PM 35.2747 -96.3208 14° North 448 516 33,000  Level Fort Worth Center
Fri 11:21:33 PM 35.3950 -96.2858 13° North 448 516 33,000  Level Fort Worth Center
Fri 11:22:34 PM 35.5139 -96.2506 14° North 446 513 33,000  Level Fort Worth Center
Fri 11:23:35 PM 35.6364 -96.2150 13° North 450 518 33,000  Level Fort Worth Center
Fri 11:24:26 PM 35.7297 -96.1856 14° North 447 514 33,000  Level Kansas City Center
Fri 11:25:27 PM 35.8506 -96.1511 13° North 448 516 33,000  Level Kansas City Center
Fri 11:26:28 PM 35.9944 -96.1097 13° North 447 514 33,000  Level Kansas City Center
Fri 11:27:29 PM 36.1131 -96.0733 14° North 442 509 33,000  Level Kansas City Center
Fri 11:28:30 PM 36.2300 -96.0378 14° North 435 501 33,000  Level Kansas City Center
Fri 11:29:31 PM 36.3486 -96.0011 14° North 435 501 33,000  Level Kansas City Center
Fri 11:30:32 PM 36.4694 -95.9619 15° North 437 503 33,000  Level Kansas City Center
Fri 11:31:33 PM 36.5894 -95.9256 14° North 438 504 33,000  Level Kansas City Center
Fri 11:32:33 PM 36.7108 -95.8864 15° North 442 509 33,000  Level Kansas City Center
Fri 11:33:34 PM 36.8300 -95.8481 14° North 442 509 33,000  Level Kansas City Center
Fri 11:34:35 PM 36.9494 -95.8111 14° North 441 507 33,000  Level Kansas City Center
Fri 11:35:36 PM 37.0667 -95.7736 14° North 437 503 33,000  Level Kansas City Center
Fri 11:36:37 PM 37.1850 -95.7356 14° North 436 502 33,000  Level Kansas City Center
Fri 11:37:38 PM 37.3033 -95.6972 14° North 436 502 33,000  Level Kansas City Center
Fri 11:38:39 PM 37.4211 -95.6594 14° North 436 502 33,000  Level Kansas City Center
Fri 11:39:40 PM 37.5381 -95.6206 15° North 436 502 33,000  Level Kansas City Center
Fri 11:40:40 PM 37.6564 -95.5858 13° North 436 502 33,000 -397 Level Kansas City Center
Fri 11:41:41 PM 37.7731 -95.5689 North 427 491 32,200 -1,131 Descending Kansas City Center
Fri 11:42:42 PM 37.8911 -95.5556 North 426 490 30,700 -1,475 Descending Kansas City Center
Fri 11:43:43 PM 38.0058 -95.5372 North 421 484 29,200 -1,525 Descending Kansas City Center
Fri 11:44:44 PM 38.1375 -95.5192 North 421 484 27,600 -1,525 Descending Kansas City Center
Fri 11:45:45 PM 38.2511 -95.5011 North 427 491 26,100 -1,623 Descending Kansas City Center
Fri 11:46:46 PM 38.3650 -95.4847 North 428 493 24,300 -2,132 Descending Kansas City Center
Fri 11:47:46 PM 38.4950 -95.4653 North 423 487 21,800 -2,331 Descending Kansas City Center
Fri 11:48:47 PM 38.6075 -95.4494 North 421 484 19,600 -2,213 Descending Kansas City Center
Fri 11:49:48 PM 38.7167 -95.4342 North 413 475 17,300 -2,410 Descending Kansas City Center
Fri 11:50:49 PM 38.8314 -95.3842 19° North 411 473 14,700 -2,262 Descending Kansas City Center
Fri 11:51:50 PM 38.9042 -95.2803 48° Northeast 412 474 12,700 -1,339 Descending Kansas City Center
Fri 11:52:50 PM 38.9742 -95.1814 48° Northeast 395 455 12,000 -496 Descending Kansas City Center
Fri 11:53:51 PM 39.0522 -95.0697 48° Northeast 379 436 11,700 -885 Descending Kansas City Center
Fri 11:54:52 PM 39.1089 -94.9894 48° Northeast 320 368 10,200 -2,311 Descending Kansas City Center
Fri 11:55:53 PM 39.1708 -94.9017 48° Northeast 299 344 7,000 -2,777 Descending Kansas City Center
Fri 11:56:53 PM 39.2369 -94.8589 27° Northeast 289 333 4,600 -1,488 Descending Kansas City Center
Fri 11:57:54 PM 39.3044 -94.8378 14° North 258 297 4,000 -295 Descending Kansas City Center
Fri 11:58:55 PM 39.3800 -94.8125 14° North 253 291 4,000 -246 Level Kansas City Center
Fri 11:59:56 PM 39.4353 -94.7789 25° Northeast 232 267 3,500 -639 Descending Kansas City Center
Sat 12:00:57 AM 39.4378 -94.7114 87° East 202 232 2,700 -496 Descending Kansas City Center
Sat 12:01:57 AM 39.3994 -94.6733 143° Southeast 159 183 2,500 -248 Descending Kansas City Center
Sat 12:02:58 AM 39.3650 -94.6842 194° South 133 153 2,200 -443 Descending Kansas City Center
Sat 12:03:59 AM 39.3361 -94.6925 193° South 116 133 1,600 -590 Descending Kansas City Center
Sat 12:05:00 AM 39.3022 -94.7028 193° South 122 140 1,000 -590 Descending Kansas City Center

Login

Don't have an account? Register now (free) for customized features, flight alerts, and more!